Time;durP1;ratioP1;P1;durP2;ratioP2;P2;SDS_P1;SDS_P2;PMS_P1;PMS_P2;Temp;Humidity;BMP_temperature;BMP_pressure;BME280_temperature;BME280_humidity;BME280_pressure;Samples;Min_cycle;Max_cycle;Signal;HPM_P1;HPM_P2
2022/05/01 00:01:44;;;;;;;11.38;7.20;;;;;;;9.30;65.06;102373.59;5031979;28;20053;-67
2022/05/01 00:04:12;;;;;;;9.63;7.28;;;;;;;9.33;65.33;102370.06;5027801;28;20046;-68
2022/05/01 00:06:39;;;;;;;13.20;8.07;;;;;;;9.32;65.24;102371.81;5030397;28;20041;-68
2022/05/01 00:09:06;;;;;;;12.45;8.07;;;;;;;9.32;65.53;102370.94;5031553;28;20042;-68
2022/05/01 00:11:34;;;;;;;9.98;6.97;;;;;;;9.30;65.71;102373.59;5030061;28;20042;-68
2022/05/01 00:14:02;;;;;;;9.88;7.60;;;;;;;9.28;65.60;102361.28;5029552;28;20054;-68
2022/05/01 00:16:29;;;;;;;11.27;7.03;;;;;;;9.27;65.67;102362.16;5029566;28;20106;-68
2022/05/01 00:18:57;;;;;;;12.20;7.53;;;;;;;9.26;65.89;102363.91;5031522;28;20129;-68
2022/05/01 00:21:24;;;;;;;11.57;7.25;;;;;;;9.25;65.40;102369.19;5026245;28;20042;-68
2022/05/01 00:23:51;;;;;;;9.32;7.07;;;;;;;9.22;65.10;102361.28;5028736;28;21013;-68
2022/05/01 00:26:18;;;;;;;12.65;7.30;;;;;;;9.20;65.27;102361.31;5029202;28;20505;-68
2022/05/01 00:28:46;;;;;;;11.93;6.95;;;;;;;9.19;65.49;102354.28;5026048;28;20062;-68
2022/05/01 00:31:16;;;;;;;10.88;6.93;;;;;;;9.18;65.42;102357.78;5025563;28;20100;-68
2022/05/01 00:36:29;;;;;;;12.32;7.28;;;;;;;9.15;65.92;102357.78;5028837;28;20072;-68
2022/05/01 00:39:03;;;;;;;9.95;7.85;;;;;;;9.12;65.38;102348.16;5027710;28;20092;-68
2022/05/01 00:41:34;;;;;;;9.93;7.20;;;;;;;9.08;65.63;102351.63;5027120;28;20034;-69
2022/05/01 00:44:08;;;;;;;10.32;7.43;;;;;;;9.06;65.55;102349.88;5035793;28;20042;-67
2022/05/01 00:46:47;;;;;;;9.57;7.47;;;;;;;9.01;65.87;102358.66;5029707;28;20857;-67
2022/05/01 00:49:20;;;;;;;12.57;7.55;;;;;;;8.98;66.21;102352.50;5028024;28;20046;-69
2022/05/01 00:51:52;;;;;;;9.77;7.32;;;;;;;8.97;66.67;102356.91;5031854;28;20044;-69
2022/05/01 00:54:26;;;;;;;9.60;7.10;;;;;;;8.94;66.64;102349.00;5028801;28;20112;-69
2022/05/01 00:56:59;;;;;;;11.05;8.40;;;;;;;8.93;66.80;102347.25;5023196;28;20455;-67
2022/05/01 00:59:32;;;;;;;11.88;7.50;;;;;;;8.94;67.00;102346.38;5027866;28;20042;-68
2022/05/01 01:01:59;;;;;;;10.43;7.40;;;;;;;8.94;66.57;102353.41;5028736;28;20042;-68
2022/05/01 01:04:27;;;;;;;11.93;7.80;;;;;;;8.95;66.65;102348.13;5015832;28;20472;-69
2022/05/01 01:06:54;;;;;;;12.73;7.47;;;;;;;8.94;66.49;102349.00;5028865;28;20635;-68
2022/05/01 01:09:21;;;;;;;12.10;7.47;;;;;;;8.96;66.55;102346.38;5027279;28;20066;-68
2022/05/01 01:12:53;;;;;;;10.93;7.63;;;;;;;8.96;66.36;102347.25;5029905;28;20424;-69
2022/05/01 01:14:36;;;;;;;11.10;7.75;;;;;;;8.96;66.18;102352.53;5030738;28;20038;-69
2022/05/01 01:17:04;;;;;;;9.27;7.43;;;;;;;8.98;66.12;102356.03;5032534;28;20042;-67
2022/05/01 01:19:31;;;;;;;12.07;7.50;;;;;;;8.99;66.27;102352.53;5031203;28;20136;-67
2022/05/01 01:21:59;;;;;;;10.80;7.43;;;;;;;9.01;66.20;102350.75;5032794;28;20056;-68
2022/05/01 01:24:27;;;;;;;11.88;8.30;;;;;;;9.01;66.27;102349.88;5032942;28;20124;-68
2022/05/01 01:26:56;;;;;;;10.55;7.47;;;;;;;9.02;66.44;102347.25;5033036;28;20034;-68
2022/05/01 01:32:14;;;;;;;13.18;8.55;;;;;;;8.96;66.76;102336.75;5030510;28;20104;-69
2022/05/01 01:34:43;;;;;;;14.23;8.57;;;;;;;8.93;66.68;102338.50;5033409;28;20045;-68
2022/05/01 01:37:11;;;;;;;11.15;8.30;;;;;;;8.89;66.46;102335.00;5031481;28;20483;-69
2022/05/01 01:39:43;;;;;;;10.82;7.57;;;;;;;8.85;66.54;102336.72;5029140;28;20057;-68
2022/05/01 01:42:13;;;;;;;13.27;8.55;;;;;;;8.82;66.54;102341.09;5032655;28;20053;-68
2022/05/01 01:44:41;;;;;;;12.80;8.45;;;;;;;8.80;66.67;102341.09;5033258;28;20061;-70
2022/05/01 01:47:13;;;;;;;10.93;8.50;;;;;;;8.79;66.78;102333.22;5033144;28;20124;-69
2022/05/01 01:49:41;;;;;;;10.48;7.80;;;;;;;8.77;66.83;102338.47;5020179;28;20044;-69
2022/05/01 01:52:08;;;;;;;14.38;8.45;;;;;;;8.77;66.68;102343.72;5032707;28;20045;-70
2022/05/01 01:54:36;;;;;;;11.50;8.38;;;;;;;8.78;66.71;102342.00;5045397;28;20047;-69
2022/05/01 01:57:03;;;;;;;15.15;8.75;;;;;;;8.78;66.92;102342.84;5028744;28;20050;-70
2022/05/01 01:59:31;;;;;;;11.20;8.05;;;;;;;8.78;67.10;102349.88;5029956;28;20467;-68
2022/05/01 02:01:58;;;;;;;11.77;8.50;;;;;;;8.78;67.17;102348.13;5028393;28;20072;-68
2022/05/01 02:04:25;;;;;;;12.30;7.93;;;;;;;8.78;67.20;102340.22;5033214;28;20049;-68
2022/05/01 02:06:52;;;;;;;11.68;9.30;;;;;;;8.77;67.34;102348.97;5030849;28;20042;-68
2022/05/01 02:09:19;;;;;;;12.15;8.65;;;;;;;8.75;67.16;102347.25;5030725;28;20044;-69
2022/05/01 02:11:46;;;;;;;14.60;8.90;;;;;;;8.73;67.09;102333.19;5024840;28;20045;-69
2022/05/01 02:14:15;;;;;;;13.73;8.88;;;;;;;8.72;67.08;102326.19;5016245;28;20045;-68
2022/05/01 02:16:42;;;;;;;12.00;8.57;;;;;;;8.70;66.89;102334.09;5033400;28;20427;-66
2022/05/01 02:19:10;;;;;;;10.75;8.20;;;;;;;8.72;67.07;102331.44;5031341;28;20045;-66
2022/05/01 02:21:37;;;;;;;13.18;9.18;;;;;;;8.71;67.04;102322.69;5032668;28;20045;-66
2022/05/01 02:24:09;;;;;;;13.70;9.05;;;;;;;8.70;67.22;102321.78;5031953;28;20046;-67
2022/05/01 02:26:37;;;;;;;12.70;9.32;;;;;;;8.70;67.20;102328.81;5032332;28;20054;-67
2022/05/01 02:29:09;;;;;;;15.48;9.68;;;;;;;8.70;67.28;102327.06;5028772;28;20115;-68
2022/05/01 02:31:43;;;;;;;13.82;9.35;;;;;;;8.67;67.35;102319.19;5020988;28;20037;-68
2022/05/01 02:34:12;;;;;;;12.10;9.18;;;;;;;8.67;67.29;102319.19;5032448;28;20038;-69
2022/05/01 02:36:39;;;;;;;14.23;9.35;;;;;;;8.67;67.28;102320.91;5031256;28;20045;-70
2022/05/01 02:39:06;;;;;;;12.65;9.27;;;;;;;8.67;67.13;102327.06;5033674;28;20042;-70
2022/05/01 02:41:34;;;;;;;16.65;9.80;;;;;;;8.66;67.18;102317.44;5029211;28;20133;-70
2022/05/01 02:44:03;;;;;;;12.45;8.70;;;;;;;8.69;67.34;102316.56;5029384;28;20050;-69
2022/05/01 02:46:32;;;;;;;14.20;9.40;;;;;;;8.69;67.77;102317.44;5023715;28;20464;-68
2022/05/01 02:49:00;;;;;;;14.48;9.73;;;;;;;8.69;67.63;102314.81;5033309;28;20104;-69
2022/05/01 02:51:27;;;;;;;12.85;8.77;;;;;;;8.69;67.79;102317.44;5032127;28;20046;-69
2022/05/01 02:53:55;;;;;;;13.30;9.50;;;;;;;8.70;67.95;102319.16;5028782;28;20038;-68
2022/05/01 02:56:22;;;;;;;13.95;9.75;;;;;;;8.73;68.06;102320.06;5027632;28;20048;-69
2022/05/01 02:58:49;;;;;;;16.20;9.05;;;;;;;8.70;68.43;102313.91;5027451;28;20053;-67
2022/05/01 03:01:16;;;;;;;13.40;9.43;;;;;;;8.71;68.35;102306.91;5032479;28;20050;-68
2022/05/01 03:03:43;;;;;;;15.07;9.88;;;;;;;8.70;68.34;102308.66;5033629;28;20121;-69
2022/05/01 03:06:10;;;;;;;13.90;9.50;;;;;;;8.68;68.16;102309.53;5031387;28;20041;-70
2022/05/01 03:08:36;;;;;;;13.85;9.88;;;;;;;8.68;67.99;102305.16;5028356;28;20065;-69
2022/05/01 03:11:03;;;;;;;15.52;9.98;;;;;;;8.67;68.21;102302.53;5033099;28;20599;-69
2022/05/01 03:13:30;;;;;;;13.73;9.27;;;;;;;8.65;68.15;102297.28;5031237;28;20046;-68
2022/05/01 03:15:57;;;;;;;14.63;9.57;;;;;;;8.64;68.24;102305.16;5032822;28;20044;-68
2022/05/01 03:23:56;;;;;;;16.25;9.88;;;;;;;8.57;68.25;102303.38;5020601;28;20046;-69
2022/05/01 03:26:25;;;;;;;18.05;9.88;;;;;;;8.57;68.23;102300.75;5028377;28;20598;-68
2022/05/01 03:28:52;;;;;;;13.38;10.15;;;;;;;8.57;68.45;102306.00;5028025;28;20149;-68
2022/05/01 03:31:20;;;;;;;15.30;10.50;;;;;;;8.59;68.41;102299.91;5016315;28;20516;-68
2022/05/01 03:33:47;;;;;;;15.13;10.70;;;;;;;8.59;68.48;102305.16;5031907;28;20038;-70
2022/05/01 03:36:15;;;;;;;13.93;10.77;;;;;;;8.60;68.52;102296.38;5028813;28;20088;-68
2022/05/01 03:38:42;;;;;;;14.68;10.38;;;;;;;8.59;68.56;102293.75;5029847;28;20108;-68
2022/05/01 03:41:15;;;;;;;17.00;10.73;;;;;;;8.57;69.25;102290.25;5032553;28;20041;-68
2022/05/01 03:43:43;;;;;;;17.33;10.60;;;;;;;8.52;69.31;102284.97;5030137;28;20097;-69
2022/05/01 03:46:11;;;;;;;15.32;10.18;;;;;;;8.48;69.48;102291.97;5022224;28;20053;-70
2022/05/01 03:48:38;;;;;;;14.48;10.45;;;;;;;8.44;69.18;102287.59;5031412;28;20046;-70
2022/05/01 03:51:05;;;;;;;16.13;10.82;;;;;;;8.42;69.16;102288.44;5025707;28;20089;-69
2022/05/01 03:53:32;;;;;;;16.73;10.45;;;;;;;8.39;69.21;102287.53;5026815;28;20045;-69
2022/05/01 03:55:59;;;;;;;17.23;11.25;;;;;;;8.40;69.49;102289.31;5031795;28;20530;-67
2022/05/01 03:58:29;;;;;;;16.38;10.75;;;;;;;8.40;69.56;102293.69;5031458;28;20046;-67
2022/05/01 04:00:57;;;;;;;19.52;12.48;;;;;;;8.39;70.02;102292.81;5030991;28;20062;-68
2022/05/01 04:03:25;;;;;;;19.42;11.52;;;;;;;8.37;69.97;102291.94;5029838;28;20042;-69
2022/05/01 04:05:53;;;;;;;18.38;11.50;;;;;;;8.36;70.26;102295.44;5027270;28;20058;-68
2022/05/01 04:08:21;;;;;;;20.63;11.48;;;;;;;8.38;70.18;102298.97;5019948;28;20974;-70
2022/05/01 04:10:49;;;;;;;18.00;12.13;;;;;;;8.40;69.99;102296.31;5027450;28;20045;-69
2022/05/01 04:13:16;;;;;;;15.65;11.82;;;;;;;8.44;69.90;102302.47;5026475;28;20045;-69
2022/05/01 04:15:44;;;;;;;16.20;11.38;;;;;;;8.45;69.87;102291.06;5029193;28;20034;-70
2022/05/01 04:18:12;;;;;;;15.70;10.70;;;;;;;8.46;70.04;102296.31;5029599;28;20038;-71
2022/05/01 04:20:39;;;;;;;18.02;11.32;;;;;;;8.45;70.18;102297.19;5032239;28;20050;-69
2022/05/01 04:23:08;;;;;;;20.30;12.23;;;;;;;8.44;70.34;102299.84;5028472;28;20049;-70
2022/05/01 04:25:36;;;;;;;18.17;12.63;;;;;;;8.43;70.42;102295.44;5026355;28;20045;-70
2022/05/01 04:28:11;;;;;;;16.70;11.60;;;;;;;8.43;70.67;102300.69;5028187;28;20038;-69
2022/05/01 04:30:39;;;;;;;18.55;11.80;;;;;;;8.45;70.42;102304.22;5031108;28;20057;-68
2022/05/01 04:33:10;;;;;;;17.00;12.18;;;;;;;8.46;70.31;102301.56;5036767;28;20097;-68
2022/05/01 04:35:50;;;;;;;16.70;11.75;;;;;;;8.46;70.33;102298.09;5013238;28;20089;-68
2022/05/01 04:38:24;;;;;;;15.48;11.07;;;;;;;8.42;70.65;102291.94;5029764;28;20165;-68
2022/05/01 04:40:55;;;;;;;17.38;11.80;;;;;;;8.39;70.65;102284.91;5029855;28;20042;-67
2022/05/01 04:43:29;;;;;;;18.80;12.20;;;;;;;8.36;70.95;102287.56;5027793;28;20046;-69
2022/05/01 04:45:58;;;;;;;19.73;12.37;;;;;;;8.36;70.54;102292.81;5027181;28;20053;-68
2022/05/01 04:48:26;;;;;;;18.05;12.75;;;;;;;8.34;70.54;102293.69;5028210;28;20260;-67
2022/05/01 04:50:53;;;;;;;19.38;11.85;;;;;;;8.35;70.59;102296.31;5015818;28;20042;-68
2022/05/01 04:53:22;;;;;;;17.17;12.55;;;;;;;8.37;70.39;102306.81;5029792;28;20045;-67
2022/05/01 04:55:52;;;;;;;16.95;11.55;;;;;;;8.37;70.43;102302.47;5030593;28;20049;-67
2022/05/01 04:58:23;;;;;;;16.70;11.77;;;;;;;8.40;70.21;102310.31;5019900;28;20064;-66
2022/05/01 05:00:50;;;;;;;17.35;11.82;;;;;;;8.48;70.24;102309.53;5016864;28;20042;-67
2022/05/01 05:03:18;;;;;;;16.33;11.70;;;;;;;8.55;70.23;102312.13;5030166;28;20069;-70
2022/05/01 05:05:45;;;;;;;17.08;12.20;;;;;;;8.65;70.27;102302.53;5020229;28;20159;-69
2022/05/01 05:10:58;;;;;;;16.05;11.90;;;;;;;8.76;70.14;102301.66;5021715;28;20046;-68
2022/05/01 05:13:27;;;;;;;17.23;12.02;;;;;;;8.80;69.80;102301.66;5029114;28;20061;-67
2022/05/01 05:15:59;;;;;;;18.65;12.77;;;;;;;8.85;69.79;102301.66;5029711;28;20046;-68
2022/05/01 05:18:27;;;;;;;18.30;12.10;;;;;;;8.89;69.46;102310.44;5030037;28;20042;-69
2022/05/01 05:20:56;;;;;;;19.58;12.13;;;;;;;8.93;69.45;102307.78;5020749;28;20045;-69
2022/05/01 05:23:23;;;;;;;18.55;12.80;;;;;;;9.00;69.55;102316.56;5026039;28;20081;-68
2022/05/01 05:25:50;;;;;;;19.73;12.40;;;;;;;9.07;69.28;102315.69;5028765;28;20494;-67
2022/05/01 05:28:18;;;;;;;18.35;12.18;;;;;;;9.10;69.37;102315.69;5030434;28;20042;-68
2022/05/01 05:30:48;;;;;;;17.23;11.82;;;;;;;9.11;69.37;102320.06;5029951;28;20498;-68
2022/05/01 05:33:17;;;;;;;17.10;12.43;;;;;;;9.10;68.87;102318.31;5030048;28;20175;-67
2022/05/01 05:35:46;;;;;;;16.40;11.50;;;;;;;9.11;68.71;102324.44;5030064;28;20050;-67
2022/05/01 05:38:14;;;;;;;16.33;11.68;;;;;;;9.13;68.92;102325.31;5030175;28;20050;-66
2022/05/01 05:40:45;;;;;;;18.45;12.43;;;;;;;9.18;68.99;102326.22;5029015;28;20038;-66
2022/05/01 05:43:13;;;;;;;17.08;12.40;;;;;;;9.25;68.67;102327.94;5029954;28;20045;-66
2022/05/01 05:45:40;;;;;;;17.17;11.85;;;;;;;9.30;68.57;102328.84;5029109;28;20132;-66
2022/05/01 05:48:08;;;;;;;21.60;12.90;;;;;;;9.36;68.67;102329.69;5031039;28;20042;-66
2022/05/01 05:50:35;;;;;;;22.75;12.77;;;;;;;9.41;68.84;102320.06;5029965;28;20231;-68
2022/05/01 05:53:02;;;;;;;20.77;12.48;;;;;;;9.48;68.95;102324.41;5030388;28;20092;-68
2022/05/01 05:55:33;;;;;;;18.02;13.68;;;;;;;9.56;68.45;102327.03;5029002;28;20041;-68
2022/05/01 05:58:02;;;;;;;16.58;12.35;;;;;;;9.59;68.50;102325.28;5025084;28;20140;-68
2022/05/01 06:00:29;;;;;;;18.23;12.70;;;;;;;9.63;68.13;102328.78;5016859;28;20052;-68
2022/05/01 06:02:57;;;;;;;16.33;11.25;;;;;;;9.63;67.82;102331.41;5026714;28;20610;-69
2022/05/01 06:05:25;;;;;;;18.67;12.02;;;;;;;9.62;67.79;102327.00;5031197;28;20111;-66
2022/05/01 06:07:52;;;;;;;17.33;12.70;;;;;;;9.67;67.95;102324.38;5029971;28;20528;-68
2022/05/01 06:10:19;;;;;;;16.83;11.40;;;;;;;9.69;67.82;102323.47;5029480;28;20034;-67
2022/05/01 06:12:46;;;;;;;16.70;12.02;;;;;;;9.68;67.84;102321.72;5029173;28;20046;-68
2022/05/01 06:15:20;;;;;;;19.33;13.05;;;;;;;9.75;67.55;102323.47;5026283;28;20089;-68
2022/05/01 06:17:47;;;;;;;14.68;11.73;;;;;;;9.85;67.43;102331.34;5030452;28;20066;-68
2022/05/01 06:20:14;;;;;;;15.68;11.98;;;;;;;9.95;67.22;102339.19;5030221;28;20411;-68
2022/05/01 06:22:42;;;;;;;21.58;12.10;;;;;;;10.07;67.19;102330.34;5043297;28;20042;-66
2022/05/01 06:25:09;;;;;;;17.98;12.05;;;;;;;10.25;66.91;102333.81;5013852;28;20046;-68
2022/05/01 06:27:36;;;;;;;18.40;11.90;;;;;;;10.45;66.53;102335.50;5028211;28;20038;-68
2022/05/01 06:30:05;;;;;;;19.70;13.18;;;;;;;10.59;65.70;102338.91;5028298;28;20041;-68
2022/05/01 06:32:33;;;;;;;18.75;12.82;;;;;;;10.61;65.75;102342.41;5023798;28;20049;-69
2022/05/01 06:35:03;;;;;;;23.67;13.15;;;;;;;10.65;65.67;102336.25;5018263;28;20050;-69
2022/05/01 06:37:35;;;;;;;16.60;11.77;;;;;;;10.70;65.24;102333.56;5028120;28;20033;-69
2022/05/01 06:40:05;;;;;;;16.25;11.52;;;;;;;10.69;64.81;102335.31;5026362;28;20056;-68
2022/05/01 06:42:34;;;;;;;15.95;11.98;;;;;;;10.68;64.93;102327.41;5022273;28;20119;-69
2022/05/01 06:45:04;;;;;;;18.75;11.77;;;;;;;10.71;64.72;102330.91;5027015;28;20060;-67
2022/05/01 06:47:31;;;;;;;16.50;10.85;;;;;;;10.80;64.86;102335.25;5028097;28;20150;-66
2022/05/01 06:49:58;;;;;;;17.15;12.02;;;;;;;10.94;64.44;102336.88;5027526;28;20034;-66
2022/05/01 06:52:28;;;;;;;15.20;10.82;;;;;;;11.10;64.77;102341.16;5026080;28;20042;-66
2022/05/01 06:54:56;;;;;;;17.00;11.15;;;;;;;11.42;64.71;102341.75;5026294;28;20077;-68
2022/05/01 06:57:23;;;;;;;15.73;12.40;;;;;;;11.73;63.36;102338.78;5026433;28;20051;-68
2022/05/01 06:59:51;;;;;;;17.48;11.52;;;;;;;11.98;62.26;102339.41;5030831;28;20046;-68
2022/05/01 07:02:19;;;;;;;15.25;11.70;;;;;;;12.09;61.68;102339.28;5026493;28;20064;-67
2022/05/01 07:04:47;;;;;;;15.05;11.40;;;;;;;12.19;61.29;102347.97;5027377;28;20040;-67
2022/05/01 07:07:14;;;;;;;16.58;11.27;;;;;;;12.30;60.63;102339.91;5023886;28;20041;-68
2022/05/01 07:09:44;;;;;;;13.90;10.60;;;;;;;12.49;60.50;102349.31;5030863;28;20551;-68
2022/05/01 07:12:11;;;;;;;16.83;11.30;;;;;;;12.75;59.24;102345.41;5029428;28;20046;-67
2022/05/01 07:14:38;;;;;;;18.58;11.55;;;;;;;12.93;58.58;102338.06;5018836;28;20046;-68
2022/05/01 07:17:06;;;;;;;14.88;10.98;;;;;;;13.11;58.32;102334.25;5019127;28;20038;-68
2022/05/01 07:19:33;;;;;;;14.38;10.73;;;;;;;13.26;57.39;102334.00;5018759;28;20492;-68
2022/05/01 07:22:00;;;;;;;15.02;11.32;;;;;;;13.30;57.13;102335.66;5020330;28;20046;-69
2022/05/01 07:24:27;;;;;;;15.20;11.48;;;;;;;13.35;56.89;102336.47;5023748;28;20049;-69
2022/05/01 07:26:55;;;;;;;15.15;11.10;;;;;;;13.38;56.95;102329.38;5019872;28;20043;-68
2022/05/01 07:29:22;;;;;;;15.10;11.02;;;;;;;13.40;55.94;102336.41;5018801;28;20042;-67
2022/05/01 07:31:49;;;;;;;15.35;10.93;;;;;;;13.34;55.76;102328.53;5021244;28;21017;-67
2022/05/01 07:34:18;;;;;;;15.65;10.88;;;;;;;13.38;56.48;102339.97;5023026;28;20100;-68
2022/05/01 07:36:46;;;;;;;14.80;10.82;;;;;;;13.58;56.37;102339.63;5023478;28;20113;-66
2022/05/01 07:39:14;;;;;;;13.50;10.27;;;;;;;13.76;55.85;102336.59;5022089;28;20056;-67
2022/05/01 07:41:41;;;;;;;14.68;10.68;;;;;;;14.00;55.31;102338.78;5018285;28;20042;-67
2022/05/01 07:44:11;;;;;;;13.27;10.05;;;;;;;14.23;55.10;102336.53;5024075;28;20048;-67
2022/05/01 07:46:45;;;;;;;13.40;10.30;;;;;;;14.45;53.81;102338.69;5015791;28;20046;-69
2022/05/01 07:49:13;;;;;;;14.00;10.23;;;;;;;14.58;52.61;102332.22;5021792;28;20045;-68
2022/05/01 07:51:52;;;;;;;14.05;9.52;;;;;;;14.69;53.16;102336.44;5034289;28;20149;-68
2022/05/01 07:54:19;;;;;;;13.10;9.82;;;;;;;14.86;52.04;102338.66;5021961;28;20042;-68
2022/05/01 07:56:46;;;;;;;11.80;9.55;;;;;;;14.89;51.69;102338.59;5020587;28;20042;-67
2022/05/01 07:59:14;;;;;;;13.38;9.45;;;;;;;14.85;51.48;102334.28;5017872;28;20034;-67
2022/05/01 08:01:42;;;;;;;11.32;8.98;;;;;;;14.80;51.51;102328.19;5025750;28;20038;-67
2022/05/01 08:04:28;;;;;;;14.60;9.57;;;;;;;14.74;51.66;102338.06;5020643;28;20046;-69
2022/05/01 08:07:03;;;;;;;13.02;9.40;;;;;;;14.74;51.48;102330.09;5018081;28;20050;-68
2022/05/01 08:09:31;;;;;;;11.85;9.65;;;;;;;14.67;51.54;102333.78;5021407;28;20209;-68
2022/05/01 08:11:58;;;;;;;15.90;9.93;;;;;;;14.72;52.08;102338.97;5019098;28;20065;-68
2022/05/01 08:14:25;;;;;;;11.30;9.43;;;;;;;14.67;51.98;102335.59;5025930;28;20077;-68
2022/05/01 08:16:53;;;;;;;14.88;9.93;;;;;;;14.58;51.85;102337.50;5025024;28;20044;-69
2022/05/01 08:22:06;;;;;;;16.17;9.25;;;;;;;14.33;51.82;102336.31;5015382;28;20082;-68
2022/05/01 08:24:35;;;;;;;12.75;10.05;;;;;;;14.24;52.72;102335.63;5019140;28;20045;-68
2022/05/01 08:27:07;;;;;;;13.48;8.50;;;;;;;14.21;51.64;102333.03;5023718;28;20516;-68
2022/05/01 08:29:38;;;;;;;13.98;9.93;;;;;;;14.13;52.86;102330.56;5018465;28;20165;-69
2022/05/01 08:32:08;;;;;;;11.18;8.63;;;;;;;14.18;52.62;102335.75;5020635;28;20037;-69
2022/05/01 08:34:35;;;;;;;16.15;9.32;;;;;;;14.17;52.11;102339.31;5017572;28;20045;-67
2022/05/01 08:37:03;;;;;;;13.07;8.48;;;;;;;14.19;51.81;102337.50;5025844;28;20049;-68
2022/05/01 08:39:31;;;;;;;13.40;9.75;;;;;;;14.21;51.26;102338.31;5018272;28;20030;-68
2022/05/01 08:42:02;;;;;;;12.75;9.13;;;;;;;14.25;51.82;102339.13;5025352;28;20038;-69
2022/05/01 08:44:32;;;;;;;11.73;9.32;;;;;;;14.31;52.08;102335.47;5017516;28;20527;-69
2022/05/01 08:47:21;;;;;;;14.63;9.45;;;;;;;14.44;52.01;102336.94;5036064;28;20143;-69
2022/05/01 08:49:57;;;;;;;11.90;9.40;;;;;;;14.66;51.78;102339.09;5017843;28;20069;-68
2022/05/01 08:52:29;;;;;;;15.10;9.35;;;;;;;14.93;50.99;102331.41;5013435;28;20111;-68
2022/05/01 08:54:58;;;;;;;12.70;9.48;;;;;;;15.16;50.65;102333.50;5026373;28;20069;-68
2022/05/01 08:57:28;;;;;;;13.23;9.90;;;;;;;15.29;50.63;102328.72;5021870;28;20038;-68
2022/05/01 08:59:55;;;;;;;14.68;9.63;;;;;;;15.34;50.01;102325.03;5009022;28;20047;-69
2022/05/01 09:02:25;;;;;;;13.52;8.95;;;;;;;15.36;49.70;102328.50;5022297;28;20034;-70
2022/05/01 09:04:52;;;;;;;12.02;8.77;;;;;;;15.42;49.08;102326.63;5019515;28;20045;-67
2022/05/01 09:07:20;;;;;;;13.10;7.78;;;;;;;15.36;46.58;102322.34;5016447;28;20031;-68
2022/05/01 09:09:50;;;;;;;12.10;8.25;;;;;;;15.23;47.67;102329.75;5013468;28;20047;-67
2022/05/01 09:15:05;;;;;;;11.05;7.85;;;;;;;15.31;47.53;102322.47;5020690;28;20118;-67
2022/05/01 09:17:35;;;;;;;10.52;8.00;;;;;;;15.44;47.26;102314.16;5010757;28;20043;-67
2022/05/01 09:20:10;;;;;;;10.05;7.70;;;;;;;15.62;46.29;102315.41;5023570;28;20769;-68
2022/05/01 09:22:58;;;;;;;10.07;7.70;;;;;;;15.88;47.18;102320.03;5019409;28;20085;-67
2022/05/01 09:25:28;;;;;;;14.23;8.20;;;;;;;16.27;47.34;102311.78;5008417;28;20555;-68
2022/05/01 09:27:59;;;;;;;12.05;8.10;;;;;;;16.56;47.57;102312.66;5015382;28;20125;-68
2022/05/01 09:30:42;;;;;;;11.48;7.15;;;;;;;16.73;45.78;102311.22;5019579;28;20045;-68
2022/05/01 09:33:20;;;;;;;10.18;7.47;;;;;;;16.87;44.57;102314.31;5014355;28;20133;-68
2022/05/01 09:35:49;;;;;;;12.27;7.05;;;;;;;16.92;43.43;102322.13;5022825;28;20153;-67
2022/05/01 09:38:17;;;;;;;9.05;6.20;;;;;;;16.92;43.50;102308.81;5021954;28;20049;-68
2022/05/01 09:40:48;;;;;;;10.27;7.18;;;;;;;17.02;42.69;102307.63;5018558;28;20535;-68
2022/05/01 09:43:45;;;;;;;10.90;8.02;;;;;;;17.05;42.10;102312.81;5016327;28;20042;-68
2022/05/01 09:46:29;;;;;;;10.23;7.10;;;;;;;17.11;41.66;102313.56;5016455;28;20148;-68
2022/05/01 09:49:03;;;;;;;11.90;6.30;;;;;;;17.07;37.71;102307.47;5020098;28;20034;-68
2022/05/01 09:51:34;;;;;;;6.93;5.40;;;;;;;16.94;35.86;102316.78;5015370;28;20457;-68
2022/05/01 09:54:04;;;;;;;10.23;5.45;;;;;;;16.79;36.06;102312.81;5023203;28;20066;-68
2022/05/01 09:57:05;;;;;;;7.70;5.47;;;;;;;16.66;37.17;102307.88;5019198;28;20041;-67
2022/05/01 09:59:46;;;;;;;8.02;5.07;;;;;;;16.68;38.07;102307.84;5020175;28;20119;-69
2022/05/01 10:02:14;;;;;;;6.93;5.63;;;;;;;16.71;37.78;102308.63;5025605;28;20128;-68
2022/05/01 10:04:45;;;;;;;11.82;6.18;;;;;;;16.73;38.01;102300.56;5026772;28;20479;-69
2022/05/01 10:07:16;;;;;;;10.38;6.38;;;;;;;16.81;39.08;102305.66;5027173;28;20042;-68
2022/05/01 10:09:46;;;;;;;9.15;5.63;;;;;;;16.86;38.99;102301.91;5030356;28;20046;-68
2022/05/01 10:12:17;;;;;;;8.60;6.15;;;;;;;16.89;37.57;102306.25;5027296;28;20941;-69
2022/05/01 10:14:44;;;;;;;8.18;6.07;;;;;;;16.80;37.51;102296.78;5021772;28;20141;-67
2022/05/01 10:17:12;;;;;;;10.20;6.20;;;;;;;16.71;35.15;102297.97;5023147;28;20038;-68
2022/05/01 10:19:41;;;;;;;9.57;5.85;;;;;;;16.39;36.57;102307.84;5019828;28;20864;-69
2022/05/01 10:22:09;;;;;;;9.30;6.05;;;;;;;16.20;37.13;102307.56;5025595;28;20125;-68
2022/05/01 10:24:37;;;;;;;8.05;6.63;;;;;;;16.19;38.15;102302.28;5021372;28;20038;-68
2022/05/01 10:27:40;;;;;;;8.15;5.97;;;;;;;16.28;36.43;102309.97;5011870;28;20052;-68
2022/05/01 10:33:59;;;;;;;10.15;8.20;;;;;;;16.09;41.96;102305.22;5029409;28;20042;-68
2022/05/01 10:37:13;;;;;;;10.60;7.97;;;;;;;16.19;41.56;102299.63;5044920;28;20062;-68
2022/05/01 10:39:41;;;;;;;10.57;7.25;;;;;;;16.26;41.96;102296.75;5025362;28;21797;-69
2022/05/01 10:42:09;;;;;;;11.75;7.47;;;;;;;16.26;40.96;102295.84;5019880;28;20619;-67
2022/05/01 10:44:38;;;;;;;9.98;7.65;;;;;;;16.01;41.47;102304.59;5020540;28;20140;-69
2022/05/01 10:47:13;;;;;;;10.10;7.30;;;;;;;15.87;42.08;102302.34;5015667;28;20053;-69
2022/05/01 10:49:47;;;;;;;10.40;7.75;;;;;;;15.84;42.11;102294.47;5019840;28;20868;-67
2022/05/01 10:52:23;;;;;;;9.80;7.60;;;;;;;15.91;41.45;102300.47;5029273;28;20042;-68
2022/05/01 10:55:04;;;;;;;11.18;8.07;;;;;;;15.95;42.43;102296.78;5021815;28;20513;-68
2022/05/01 10:57:32;;;;;;;9.35;7.50;;;;;;;15.87;42.10;102296.16;5026961;28;20038;-68
2022/05/01 11:00:12;;;;;;;10.40;7.75;;;;;;;15.86;42.13;102287.31;5029145;28;20222;-70
2022/05/01 11:02:47;;;;;;;9.70;7.50;;;;;;;15.76;41.70;102284.00;5021530;28;20070;-66
2022/05/01 11:05:45;;;;;;;11.52;8.15;;;;;;;15.77;42.12;102279.56;5021076;28;20089;-68
2022/05/01 11:08:17;;;;;;;10.38;7.53;;;;;;;15.77;42.57;102282.22;5023472;28;20034;-70
2022/05/01 11:10:47;;;;;;;11.93;8.00;;;;;;;15.97;42.69;102279.84;5028992;28;20034;-68
2022/05/01 11:13:32;;;;;;;11.98;7.53;;;;;;;16.35;42.02;102279.59;5022607;28;20501;-68
2022/05/01 11:16:00;;;;;;;9.88;7.78;;;;;;;16.69;40.40;102275.84;5022493;28;20121;-68
2022/05/01 11:18:29;;;;;;;12.43;7.82;;;;;;;16.80;39.40;102272.81;5023203;28;20042;-69
2022/05/01 11:21:24;;;;;;;10.15;7.63;;;;;;;16.97;38.06;102271.41;5020560;28;20046;-68
2022/05/01 11:24:04;;;;;;;8.88;7.05;;;;;;;16.83;39.50;102271.84;5027812;28;20424;-69
2022/05/01 11:26:33;;;;;;;9.63;7.63;;;;;;;16.84;39.23;102260.28;5029538;28;20858;-69
2022/05/01 11:29:13;;;;;;;9.52;6.95;;;;;;;17.01;39.02;102260.59;5027036;28;20038;-69
2022/05/01 11:31:44;;;;;;;9.90;7.72;;;;;;;17.04;38.73;102257.78;5028647;28;20081;-69
2022/05/01 11:34:15;;;;;;;11.20;7.47;;;;;;;17.28;38.41;102260.53;5029041;28;20160;-68
2022/05/01 11:37:01;;;;;;;18.77;7.68;;;;;;;17.90;36.52;102247.56;5020666;28;20049;-67
2022/05/01 11:39:49;;;;;;;8.55;7.18;;;;;;;18.51;35.45;102239.84;5015100;28;20044;-68
2022/05/01 11:42:24;;;;;;;10.20;7.60;;;;;;;18.93;35.57;102244.31;5020889;28;20045;-69
2022/05/01 11:44:52;;;;;;;;;;;;;;;19.03;34.30;102247.47;5019160;28;20495;-68
2022/05/01 11:47:21;;;;;;;11.00;7.05;;;;;;;19.00;33.69;102240.44;5021264;28;19982;-68
2022/05/01 11:49:52;;;;;;;13.63;7.30;;;;;;;18.88;33.63;102241.81;5027034;28;20041;-68
2022/05/01 11:52:24;;;;;;;10.98;7.65;;;;;;;18.85;32.31;102233.94;5022846;28;20038;-67
2022/05/01 11:54:54;;;;;;;7.28;6.57;;;;;;;18.78;32.49;102233.34;5022653;28;20089;-68
2022/05/01 12:03:13;;;;;;;10.20;6.60;;;;;;;19.89;31.81;102213.25;5023717;28;20056;-68